createdAt,value
2022-12-24T00:00:29.466Z,100404.94
2022-12-24T00:05:33.657Z,100415.56
2022-12-24T00:10:46.253Z,100407.75
2022-12-24T00:15:55.351Z,100409.72
2022-12-24T00:21:01.878Z,100410.72
2022-12-24T00:26:13.292Z,100408.09
2022-12-24T00:31:18.197Z,100416.38
2022-12-24T00:36:20.470Z,100418.16
2022-12-24T00:41:25.122Z,100412.03
2022-12-24T00:46:36.023Z,100424.63
2022-12-24T00:51:37.864Z,100425.78
2022-12-24T00:56:41.653Z,100432.25
2022-12-24T01:01:46.062Z,100429.75
2022-12-24T01:06:47.807Z,100438.53
2022-12-24T01:11:51.876Z,100449.47
2022-12-24T01:16:58.565Z,100448.78
2022-12-24T01:22:05.278Z,100447.97
2022-12-24T01:27:07.017Z,100443.63
2022-12-24T01:32:08.928Z,100456.06
2022-12-24T01:37:10.951Z,100460.41
2022-12-24T01:42:38.435Z,100463.88
2022-12-24T01:47:40.266Z,100478.09
2022-12-24T01:52:46.080Z,100486.91
2022-12-24T01:57:56.945Z,100481.63
2022-12-24T02:03:04.425Z,100482.44
2022-12-24T02:08:07.909Z,100484.09
2022-12-24T02:13:22.506Z,100487.56
2022-12-24T02:18:55.810Z,100492.88
2022-12-24T02:24:09.919Z,100501.00
2022-12-24T02:29:20.378Z,100512.44
2022-12-24T02:34:40.872Z,100509.09
2022-12-24T02:39:51.419Z,100505.78
2022-12-24T02:45:06.622Z,100506.78
2022-12-24T02:50:15.958Z,100511.41
2022-12-24T02:55:22.396Z,100506.25
2022-12-24T03:00:25.815Z,100515.22
2022-12-24T03:05:49.815Z,100522.16
2022-12-24T03:11:02.287Z,100531.81
2022-12-24T03:16:06.582Z,100537.94
2022-12-24T03:21:31.967Z,100535.28
2022-12-24T03:26:38.813Z,100541.56
2022-12-24T03:31:52.300Z,100532.91
2022-12-24T03:36:59.389Z,100544.38
2022-12-24T03:42:04.543Z,100551.34
2022-12-24T03:47:10.851Z,100562.78
2022-12-24T03:52:14.858Z,100575.34
2022-12-24T03:57:16.734Z,100573.69
2022-12-24T04:02:18.959Z,100549.81
2022-12-24T04:07:25.466Z,100565.59
2022-12-24T04:12:32.033Z,100566.41
2022-12-24T04:17:33.789Z,100565.75
2022-12-24T04:22:35.577Z,100561.25
2022-12-24T04:27:39.605Z,100570.22
2022-12-24T04:32:43.559Z,100575.53
2022-12-24T04:37:45.224Z,100584.31
2022-12-24T04:42:50.597Z,100584.31
2022-12-24T04:47:52.356Z,100592.13
2022-12-24T04:52:54.145Z,100602.56
2022-12-24T04:57:55.837Z,100610.50
2022-12-24T05:03:00.230Z,100604.06
2022-12-24T05:08:04.613Z,100603.22
2022-12-24T05:13:08.792Z,100618.88
2022-12-24T05:18:13.460Z,100618.00
2022-12-24T05:23:42.091Z,100628.31
2022-12-24T05:28:43.760Z,100632.63
2022-12-24T05:33:47.883Z,100624.53
2022-12-24T05:38:49.818Z,100629.69
2022-12-24T05:43:54.060Z,100632.50
2022-12-24T05:48:55.837Z,100633.31
2022-12-24T05:53:58.566Z,100636.97
2022-12-24T05:59:02.777Z,100643.09
2022-12-24T06:04:09.253Z,100655.38
2022-12-24T06:09:11.107Z,100658.19
2022-12-24T06:14:14.960Z,100656.38
2022-12-24T06:19:16.748Z,100653.38
2022-12-24T06:24:21.464Z,100662.34
2022-12-24T06:29:27.305Z,100668.47
2022-12-24T06:34:29.316Z,100652.56
2022-12-24T06:39:31.054Z,100669.47
2022-12-24T06:44:35.287Z,100671.59
2022-12-24T06:49:39.236Z,100683.19
2022-12-24T06:54:40.948Z,100697.44
2022-12-24T06:59:42.613Z,100703.75
2022-12-24T07:04:47.021Z,100705.06
2022-12-24T07:09:51.051Z,100713.03
2022-12-24T07:14:55.039Z,100728.94
2022-12-24T07:19:59.297Z,100726.84
2022-12-24T07:25:06.162Z,100745.28
2022-12-24T07:30:08.669Z,100738.47
2022-12-24T07:35:10.373Z,100733.66
2022-12-24T07:40:17.348Z,100754.88
2022-12-24T07:45:20.075Z,100768.56
2022-12-24T07:50:21.759Z,100762.63
2022-12-24T07:55:26.880Z,100770.53
2022-12-24T08:00:28.715Z,100773.28
2022-12-24T08:05:35.129Z,100771.13
2022-12-24T08:10:39.764Z,100783.25
2022-12-24T08:15:42.815Z,100791.75
2022-12-24T08:20:48.069Z,100797.69
2022-12-24T08:25:50.160Z,100796.69
2022-12-24T08:30:54.240Z,100813.09
2022-12-24T08:35:58.580Z,100826.59
2022-12-24T08:41:00.274Z,100831.13
2022-12-24T08:46:05.834Z,100826.66
2022-12-24T08:51:12.161Z,100830.97
2022-12-24T08:56:16.460Z,100830.31
2022-12-24T09:01:21.395Z,100841.56
2022-12-24T09:06:25.683Z,100842.81
2022-12-24T09:11:29.699Z,100857.06
2022-12-24T09:16:36.810Z,100866.94
2022-12-24T09:21:41.553Z,100861.13
2022-12-24T09:26:43.402Z,100865.50
2022-12-24T09:31:47.868Z,100889.66
2022-12-24T09:36:54.418Z,100896.69
2022-12-24T09:42:16.281Z,100910.53
2022-12-24T09:47:29.129Z,100921.28
2022-12-24T09:52:39.314Z,100936.13
2022-12-24T09:57:47.064Z,100944.69
2022-12-24T10:02:48.870Z,100952.03
2022-12-24T10:07:53.414Z,100945.53
2022-12-24T10:13:56.237Z,100955.69
2022-12-24T10:19:24.291Z,100950.59
2022-12-24T10:24:34.798Z,100950.56
2022-12-24T10:29:42.945Z,100949.94
2022-12-24T10:34:48.328Z,100944.44
2022-12-24T10:39:57.564Z,100950.28
2022-12-24T10:45:04.150Z,100949.94
2022-12-24T10:50:27.586Z,100960.28
2022-12-24T10:55:29.928Z,100985.97
2022-12-24T11:00:37.475Z,100965.13
2022-12-24T11:05:45.216Z,100978.47
2022-12-24T11:11:06.123Z,100983.00
2022-12-24T11:16:31.119Z,100986.66
2022-12-24T11:21:35.371Z,100984.81
2022-12-24T11:26:38.135Z,100979.31
2022-12-24T11:31:46.152Z,100965.09
2022-12-24T11:36:47.949Z,100975.31
2022-12-24T11:41:53.261Z,100978.28
2022-12-24T11:46:59.053Z,100969.09
2022-12-24T11:52:12.621Z,100971.41
2022-12-24T11:57:16.470Z,100985.13
2022-12-24T12:02:34.483Z,100985.94
2022-12-24T12:07:38.254Z,100995.63
2022-12-24T12:12:45.710Z,100989.44
2022-12-24T12:18:13.948Z,100987.09
2022-12-24T12:23:35.886Z,100985.56
2022-12-24T12:28:45.610Z,101002.41
2022-12-24T12:33:52.463Z,100998.25
2022-12-24T12:38:54.221Z,100999.28
2022-12-24T12:44:19.945Z,101015.13
2022-12-24T12:49:23.877Z,101009.47
2022-12-24T12:54:40.217Z,101012.31
2022-12-24T12:59:56.921Z,101014.47
2022-12-24T13:05:27.804Z,101019.66
2022-12-24T13:11:09.394Z,101035.31
2022-12-24T13:16:34.002Z,101043.50
2022-12-24T13:21:36.916Z,101047.53
2022-12-24T13:26:38.644Z,101054.50
2022-12-24T13:31:40.397Z,101058.19
2022-12-24T13:37:04.108Z,101054.03
2022-12-24T13:42:08.321Z,101070.03
2022-12-24T13:47:13.293Z,101072.53
2022-12-24T13:52:14.921Z,101064.69
2022-12-24T13:57:34.313Z,101079.34
2022-12-24T14:02:43.295Z,101068.69
2022-12-24T14:07:47.733Z,101080.19
2022-12-24T14:12:55.257Z,101081.38
2022-12-24T14:17:57.076Z,101098.69
2022-12-24T14:23:01.587Z,101091.16
2022-12-24T14:28:19.140Z,101122.47
2022-12-24T14:33:34.483Z,101126.81
2022-12-24T14:38:38.695Z,101118.63
2022-12-24T14:43:46.068Z,101135.06
2022-12-24T14:48:54.710Z,101142.56
2022-12-24T14:54:27.083Z,101156.38
2022-12-24T14:59:30.874Z,101175.19
2022-12-24T15:04:33.383Z,101183.34
2022-12-24T15:09:37.452Z,101197.00
2022-12-24T15:14:45.084Z,101190.16
2022-12-24T15:19:52.527Z,101205.31
2022-12-24T15:25:00.189Z,101216.16
2022-12-24T15:30:12.278Z,101219.50
2022-12-24T15:35:35.979Z,101224.81
2022-12-24T15:40:37.755Z,101223.81
2022-12-24T15:45:53.547Z,101229.97
2022-12-24T15:51:01.630Z,101239.13
2022-12-24T15:56:36.705Z,101237.47
2022-12-24T16:01:38.528Z,101254.09
2022-12-24T16:07:01.935Z,101262.69
2022-12-24T16:12:04.973Z,101277.94
2022-12-24T16:17:23.814Z,101273.47
2022-12-24T16:22:31.584Z,101274.69
2022-12-24T16:27:38.378Z,101277.97
2022-12-24T16:32:42.003Z,101287.56
2022-12-24T16:37:43.711Z,101303.03
2022-12-24T16:43:08.005Z,101297.22
2022-12-24T16:48:19.196Z,101302.50
2022-12-24T16:53:22.116Z,101315.31
2022-12-24T16:58:24.005Z,101322.34
2022-12-24T17:03:28.259Z,101321.00
2022-12-24T17:08:29.992Z,101343.75
2022-12-24T17:13:32.118Z,101344.53
2022-12-24T17:18:35.454Z,101340.59
2022-12-24T17:23:43.191Z,101343.66
2022-12-24T17:28:47.075Z,101359.78
2022-12-24T17:33:50.323Z,101358.50
2022-12-24T17:38:55.004Z,101375.81
2022-12-24T17:43:56.786Z,101365.72
2022-12-24T17:48:58.511Z,101373.72
2022-12-24T17:54:00.791Z,101381.41
2022-12-24T17:59:03.872Z,101388.41
2022-12-24T18:04:06.330Z,101381.31
2022-12-24T18:09:08.369Z,101385.53
2022-12-24T18:14:15.374Z,101391.63
2022-12-24T18:19:22.677Z,101389.66
2022-12-24T18:24:27.629Z,101385.41
2022-12-24T18:29:29.340Z,101391.97
2022-12-24T18:34:31.056Z,101393.03
2022-12-24T18:39:32.755Z,101398.06
2022-12-24T18:44:36.134Z,101396.41
2022-12-24T18:49:38.656Z,101387.72
2022-12-24T18:54:40.901Z,101391.41
2022-12-24T18:59:42.597Z,101390.97
2022-12-24T19:04:44.238Z,101385.28
2022-12-24T19:09:48.446Z,101391.50
2022-12-24T19:14:52.496Z,101391.94
2022-12-24T19:19:56.310Z,101395.03
2022-12-24T19:25:00.285Z,101392.63
2022-12-24T19:30:02.667Z,101392.06
2022-12-24T19:35:05.014Z,101393.44
2022-12-24T19:40:10.722Z,101399.72
2022-12-24T19:45:18.553Z,101420.25
2022-12-24T19:50:23.324Z,101423.03
2022-12-24T19:55:30.352Z,101429.47
2022-12-24T20:00:35.218Z,101424.97
2022-12-24T20:05:40.896Z,101432.91
2022-12-24T20:10:45.632Z,101429.81
2022-12-24T20:15:50.003Z,101435.41
2022-12-24T20:20:54.865Z,101441.94
2022-12-24T20:26:00.677Z,101442.06
2022-12-24T20:31:19.602Z,101460.41
2022-12-24T20:36:22.734Z,101476.09
2022-12-24T20:41:30.645Z,101487.75
2022-12-24T20:46:35.631Z,101480.91
2022-12-24T20:51:40.202Z,101484.16
2022-12-24T20:56:42.334Z,101491.72
2022-12-24T21:01:48.878Z,101497.31
2022-12-24T21:06:52.995Z,101500.69
2022-12-24T21:11:54.669Z,101508.44
2022-12-24T21:17:01.309Z,101505.44
2022-12-24T21:22:08.356Z,101500.34
2022-12-24T21:27:10.351Z,101504.78
2022-12-24T21:32:13.883Z,101507.97
2022-12-24T21:37:16.221Z,101506.81
2022-12-24T21:42:20.397Z,101505.78
2022-12-24T21:47:24.865Z,101500.88
2022-12-24T21:52:26.627Z,101488.34
2022-12-24T21:57:49.118Z,101495.69
2022-12-24T22:02:55.118Z,101491.56
2022-12-24T22:08:15.663Z,101477.78
2022-12-24T22:13:18.796Z,101469.03
2022-12-24T22:18:24.890Z,101473.78
2022-12-24T22:23:28.955Z,101484.88
2022-12-24T22:28:33.278Z,101480.06
2022-12-24T22:33:36.667Z,101465.41
2022-12-24T22:38:38.721Z,101465.44
2022-12-24T22:43:42.111Z,101461.38
2022-12-24T22:48:46.361Z,101460.56
2022-12-24T22:53:48.595Z,101457.38
2022-12-24T22:58:57.208Z,101458.69
2022-12-24T23:04:01.460Z,101460.78
2022-12-24T23:09:08.387Z,101483.75
2022-12-24T23:14:49.344Z,101494.84
2022-12-24T23:19:53.162Z,101512.03
2022-12-24T23:24:54.864Z,101508.00
2022-12-24T23:29:56.632Z,101500.22
2022-12-24T23:34:58.330Z,101487.91
2022-12-24T23:40:00.206Z,101496.00
2022-12-24T23:45:04.973Z,101502.81
2022-12-24T23:50:11.638Z,101494.66
2022-12-24T23:55:13.363Z,101500.59
